In Rescue
 
Open Full Screen Window  High Contrast Mode
Wind Gusting 00 knots
03
November 20, 2019 2:11 AM EST
Present Weather: Mist
Weather Information
Wind Direction
  310 °
Wind Speed
  03 kt (3 mph)
Wind Gust
  00 kt (0 mph)
Altimeter
30.00 in
Visibility
5 SM
Temperature
03° C
37° F
Dewpoint
02° C
36° F
Humidity
93%
1hr Rain Fall
00.00 in.
24hr Rain Fall
00.00 in.
Sky Condition
Overcast @ 4,100 ft
MVFR

METAR KONZ 200711Z AUTO 31003KT 5SM BR OVC041 03/02 A3000 RMK AO2 T00330019

FAA Disclaimer: The data displayed is for advisory purposes only and is not to be used for flight planning or operations.